Langenes — JXJU — position and weather

sailwx.info

Track history (hours):
 
Tides and Currents Weather Stations Pressure Air Temp Water Temp Dewpoint Dewpoint Depression Visibility Wind Speed Wind Dir Waves Ship Positions

Langenes

Last reported at 2018-Jul-16 16:08 UTC. Time now 2018-Jul-16 18:14 UTC.
Position N 69°54' E 016°42'.

Length 57 m; draft 7.4 m.

Type: Fishing. MMSI: 258186000.

Date/timePositionNaut miles runAvg speedWind from/ knotsBaromVisibWave heightAir tempDewpointWater temp
2018-Jul-16 16:08N 69°54' E 016°42'3 0.4
2018-Jul-16 09:19N 69°56' E 016°49'1 4.3
2018-Jul-16 09:00N 69°56' E 016°53'2 4.3
2018-Jul-16 08:30N 69°55' E 016°59'3 5.2
2018-Jul-16 08:00N 69°53' E 017°04'2 4.0
2018-Jul-16 07:30N 69°55' E 017°00'1 2.4
2018-Jul-16 06:58N 69°56' E 016°58'1 1.7
2018-Jul-16 06:30N 69°56' E 016°56'1 1.6
2018-Jul-16 06:00N 69°56' E 016°53'5 1.1
2018-Jul-16 01:11N 69°54' E 016°39'1 4.0
2018-Jul-16 01:00N 69°53' E 016°39'0 0.9
2018-Jul-16 00:29N 69°53' E 016°40'2 0.5
2018-Jul-15 20:45N 69°55' E 016°43'1 4.7
2018-Jul-15 20:30N 69°54' E 016°42'1 0.2
2018-Jul-15 17:24N 69°54' E 016°41'1 3.1
2018-Jul-15 17:00N 69°55' E 016°45'1 0.4
2018-Jul-15 14:57N 69°55' E 016°42'2 3.8
2018-Jul-15 14:30N 69°55' E 016°47'2 3.8
2018-Jul-15 14:00N 69°55' E 016°53'  
2018-Jul-13 06:05N 70°41' E 021°04'110.8
2018-Jul-13 06:00N 70°40' E 021°02'510.5
2018-Jul-13 05:29N 70°35' E 020°55'510.4
2018-Jul-13 05:00N 70°31' E 020°49'510.3
2018-Jul-13 04:30N 70°26' E 020°42'510.6
2018-Jul-13 04:00N 70°21' E 020°35'510.9
2018-Jul-13 03:30N 70°17' E 020°27'611.2
2018-Jul-13 03:00N 70°12' E 020°19'611.4
2018-Jul-13 02:30N 70°07' E 020°12'610.9
2018-Jul-13 01:59N 70°01' E 020°05'511.3
2018-Jul-13 01:30N 69°57' E 019°57'611.1
2018-Jul-13 01:00N 69°52' E 019°48'511.0
2018-Jul-13 00:30N 69°49' E 019°34'611.2
2018-Jul-13 00:00N 69°48' E 019°19'511.1
2018-Jul-12 23:30N 69°45' E 019°04'510.4
2018-Jul-12 22:59N 69°40' E 019°00'1 1.6
2018-Jul-12 22:29N 69°40' E 018°58'0 0.0
2018-Jul-12 22:00N 69°40' E 018°58'0 0.0
2018-Jul-12 21:30N 69°40' E 018°58'0 0.0
2018-Jul-12 21:00N 69°40' E 018°58'0 0.9
2018-Jul-12 20:30N 69°39' E 018°59'2 3.4
2018-Jul-12 20:00N 69°38' E 018°57'0 0.0
2018-Jul-12 19:30N 69°38' E 018°57'0 0.0
2018-Jul-12 19:00N 69°38' E 018°57'0 0.0
2018-Jul-12 18:30N 69°38' E 018°57'0 0.0
2018-Jul-12 18:01N 69°38' E 018°57'0 0.0
2018-Jul-12 17:30N 69°38' E 018°57'0 0.0
2018-Jul-12 17:00N 69°38' E 018°57'0 0.0
2018-Jul-12 16:30N 69°38' E 018°57'0 0.0
2018-Jul-12 15:59N 69°38' E 018°57'0 0.0
2018-Jul-12 15:30N 69°38' E 018°57'0 0.0
2018-Jul-12 15:00N 69°38' E 018°57'0 0.0
2018-Jul-12 14:30N 69°38' E 018°57'0 0.0
2018-Jul-12 13:59N 69°38' E 018°57'0 0.0
2018-Jul-12 13:28N 69°38' E 018°57'0 0.0
2018-Jul-12 12:59N 69°38' E 018°57'0 0.0
2018-Jul-12 12:31N 69°38' E 018°57'0 0.0
2018-Jul-12 12:00N 69°38' E 018°57'0 0.0
2018-Jul-12 11:28N 69°38' E 018°57'0 0.0
2018-Jul-12 11:01N 69°38' E 018°57'0 0.0
2018-Jul-12 10:30N 69°38' E 018°57'0 0.0
2018-Jul-12 09:58N 69°38' E 018°57'0 0.0
2018-Jul-12 09:30N 69°38' E 018°57'0 0.0
2018-Jul-12 09:00N 69°38' E 018°57'0 0.0
2018-Jul-12 08:29N 69°38' E 018°57'0 0.0
2018-Jul-12 07:59N 69°38' E 018°57'0 0.0
2018-Jul-12 07:30N 69°38' E 018°57'0 0.0
2018-Jul-12 07:00N 69°38' E 018°57'0 0.0
2018-Jul-12 06:29N 69°38' E 018°57'0 0.0
2018-Jul-12 06:00N 69°38' E 018°57'0 0.0
2018-Jul-12 05:30N 69°38' E 018°57'0 0.0
2018-Jul-12 05:00N 69°38' E 018°57'0 0.0
2018-Jul-12 04:30N 69°38' E 018°57'0 0.0
2018-Jul-12 04:00N 69°38' E 018°57'0 0.0
2018-Jul-12 03:29N 69°38' E 018°57'0 0.0
2018-Jul-12 02:58N 69°38' E 018°57'0 0.0
2018-Jul-12 02:30N 69°38' E 018°57'0 0.0
2018-Jul-12 02:00N 69°38' E 018°57'0 0.0
2018-Jul-12 01:30N 69°38' E 018°57'0 0.0
2018-Jul-12 01:01N 69°38' E 018°57'0 0.0
2018-Jul-12 00:31N 69°38' E 018°57'0 0.0
2018-Jul-12 00:00N 69°38' E 018°57'0 0.0
2018-Jul-11 23:30N 69°38' E 018°57'0 0.0
2018-Jul-11 23:00N 69°38' E 018°57'0 0.0
2018-Jul-11 22:31N 69°38' E 018°57'0 0.0
2018-Jul-11 21:59N 69°38' E 018°57'0 0.0
2018-Jul-11 21:30N 69°38' E 018°57'0 0.3
2018-Jul-11 21:00N 69°38' E 018°57'0 0.3
2018-Jul-11 20:30N 69°38' E 018°57'1 1.4
2018-Jul-11 20:00N 69°38' E 018°57'2 4.8
2018-Jul-11 19:30N 69°41' E 018°59'0 0.0
2018-Jul-11 19:00N 69°41' E 018°59'0 0.0
2018-Jul-11 18:30N 69°41' E 018°59'0 0.0
2018-Jul-11 18:00N 69°41' E 018°59'0 0.0
2018-Jul-11 17:29N 69°41' E 018°59'0 0.0
2018-Jul-11 17:01N 69°41' E 018°59'0 0.0
2018-Jul-11 16:30N 69°41' E 018°59'0 0.0
2018-Jul-11 16:01N 69°41' E 018°59'0 0.0
2018-Jul-11 15:30N 69°41' E 018°59'0 0.0
2018-Jul-11 15:00N 69°41' E 018°59'0 0.0
2018-Jul-11 14:30N 69°41' E 018°59'0 0.0
2018-Jul-11 14:00N 69°41' E 018°59'0 0.0
2018-Jul-11 13:30N 69°41' E 018°59'0 0.0
2018-Jul-11 13:00N 69°41' E 018°59'0 0.0
2018-Jul-11 12:30N 69°41' E 018°59'0 0.0
2018-Jul-11 12:00N 69°41' E 018°59'0 0.0
2018-Jul-11 11:30N 69°41' E 018°59'0 0.0
2018-Jul-11 10:56N 69°41' E 018°59'0 0.0
2018-Jul-11 10:30N 69°41' E 018°59'0 0.0
2018-Jul-11 10:00N 69°41' E 018°59'0 0.0
2018-Jul-11 09:30N 69°41' E 018°59'0 0.0
2018-Jul-11 09:00N 69°41' E 018°59'0 0.0
2018-Jul-11 08:30N 69°41' E 018°59'0 0.0
2018-Jul-11 08:00N 69°41' E 018°59'0 0.0
2018-Jul-11 07:29N 69°41' E 018°59'0 0.0
2018-Jul-11 07:00N 69°41' E 018°59'0 0.0
2018-Jul-11 06:29N 69°41' E 018°59'0 0.0
2018-Jul-11 06:00N 69°41' E 018°59'0 0.0
2018-Jul-11 05:30N 69°41' E 018°59'0 0.0
2018-Jul-11 05:00N 69°41' E 018°59'0 0.0
2018-Jul-11 04:28N 69°41' E 018°59'0 0.0
2018-Jul-11 04:00N 69°41' E 018°59'0 0.0
2018-Jul-11 03:30N 69°41' E 018°59'0 0.0
2018-Jul-11 02:59N 69°41' E 018°59'0 0.0
2018-Jul-11 02:30N 69°41' E 018°59'0 0.0
2018-Jul-11 01:59N 69°41' E 018°59'0 0.0
2018-Jul-11 01:30N 69°41' E 018°59'0 0.0
2018-Jul-11 01:00N 69°41' E 018°59'0 0.0
2018-Jul-11 00:30N 69°41' E 018°59'0 0.0
2018-Jul-11 00:00N 69°41' E 018°59'0 0.0
2018-Jul-10 23:30N 69°41' E 018°59'0 0.0
2018-Jul-10 23:00N 69°41' E 018°59'0 0.0
2018-Jul-10 22:30N 69°41' E 018°59'0 0.0
2018-Jul-10 22:00N 69°41' E 018°59'0 0.0
2018-Jul-10 21:30N 69°41' E 018°59'0 0.0
2018-Jul-10 21:00N 69°41' E 018°59'0 0.0
2018-Jul-10 20:30N 69°41' E 018°59'0 0.0
2018-Jul-10 20:00N 69°41' E 018°59'0 0.0
2018-Jul-10 19:30N 69°41' E 018°59'0 0.0
2018-Jul-10 19:00N 69°41' E 018°59'0 0.0
2018-Jul-10 18:29N 69°41' E 018°59'0 0.0
2018-Jul-10 18:01N 69°41' E 018°59'0 0.0
2018-Jul-10 17:30N 69°41' E 018°59'0 0.0
2018-Jul-10 17:00N 69°41' E 018°59'0 0.0
2018-Jul-10 16:30N 69°41' E 018°59'0 0.0
2018-Jul-10 16:00N 69°41' E 018°59'0 0.0
2018-Jul-10 15:30N 69°41' E 018°59'0 0.0
2018-Jul-10 15:00N 69°41' E 018°59'2 3.8
2018-Jul-10 14:30N 69°42' E 019°02'4 8.0
2018-Jul-10 14:00N 69°46' E 019°06'3 6.8
2018-Jul-10 13:30N 69°47' E 019°15'3 6.2
2018-Jul-10 12:58N 69°48' E 019°24'3 6.9
2018-Jul-10 12:30N 69°49' E 019°33'4 7.1
2018-Jul-10 11:59N 69°51' E 019°43'4 7.9
2018-Jul-10 11:30N 69°54' E 019°51'4 8.7
2018-Jul-10 11:00N 69°57' E 019°58'5 9.6
2018-Jul-10 10:30N 70°02' E 020°04'510.0
2018-Jul-10 10:00N 70°06' E 020°10'510.1
2018-Jul-10 09:29N 70°11' E 020°17'5 9.8
2018-Jul-10 09:00N 70°15' E 020°23'5 9.3
2018-Jul-10 08:29N 70°19' E 020°29'2 4.7
2018-Jul-10 07:59N 70°21' E 020°33'3 6.1
2018-Jul-10 07:29N 70°24' E 020°36'510.6
2018-Jul-10 07:00N 70°29' E 020°43'510.5
2018-Jul-10 06:30N 70°33' E 020°51'510.6
2018-Jul-10 06:00N 70°38' E 020°59'  
Track history (hours):
 
Tides and Currents Weather Stations Pressure Air Temp Water Temp Dewpoint Dewpoint Depression Visibility Wind Speed Wind Dir Waves Ship Positions

Langenes

Last reported at 2018-Jul-16 16:08 UTC. Time now 2018-Jul-16 18:14 UTC.
Position N 69°54' E 016°42'.

Length 57 m; draft 7.4 m.

Type: Fishing. MMSI: 258186000.

Date/timePositionNaut miles runAvg speedWind from/ knotsBaromVisibWave heightAir tempDewpointWater temp
2018-Jul-16 16:08N 69°54' E 016°42'3 0.4
2018-Jul-16 09:19N 69°56' E 016°49'1 4.3
2018-Jul-16 09:00N 69°56' E 016°53'2 4.3
2018-Jul-16 08:30N 69°55' E 016°59'3 5.2
2018-Jul-16 08:00N 69°53' E 017°04'2 4.0
2018-Jul-16 07:30N 69°55' E 017°00'1 2.4
2018-Jul-16 06:58N 69°56' E 016°58'1 1.7
2018-Jul-16 06:30N 69°56' E 016°56'1 1.6
2018-Jul-16 06:00N 69°56' E 016°53'5 1.1
2018-Jul-16 01:11N 69°54' E 016°39'1 4.0
2018-Jul-16 01:00N 69°53' E 016°39'0 0.9
2018-Jul-16 00:29N 69°53' E 016°40'2 0.5
2018-Jul-15 20:45N 69°55' E 016°43'1 4.7
2018-Jul-15 20:30N 69°54' E 016°42'1 0.2
2018-Jul-15 17:24N 69°54' E 016°41'1 3.1
2018-Jul-15 17:00N 69°55' E 016°45'1 0.4
2018-Jul-15 14:57N 69°55' E 016°42'2 3.8
2018-Jul-15 14:30N 69°55' E 016°47'2 3.8
2018-Jul-15 14:00N 69°55' E 016°53'  
2018-Jul-13 06:05N 70°41' E 021°04'110.8
2018-Jul-13 06:00N 70°40' E 021°02'510.5
2018-Jul-13 05:29N 70°35' E 020°55'510.4
2018-Jul-13 05:00N 70°31' E 020°49'510.3
2018-Jul-13 04:30N 70°26' E 020°42'510.6
2018-Jul-13 04:00N 70°21' E 020°35'510.9
2018-Jul-13 03:30N 70°17' E 020°27'611.2
2018-Jul-13 03:00N 70°12' E 020°19'611.4
2018-Jul-13 02:30N 70°07' E 020°12'610.9
2018-Jul-13 01:59N 70°01' E 020°05'511.3
2018-Jul-13 01:30N 69°57' E 019°57'611.1
2018-Jul-13 01:00N 69°52' E 019°48'511.0
2018-Jul-13 00:30N 69°49' E 019°34'611.2
2018-Jul-13 00:00N 69°48' E 019°19'511.1
2018-Jul-12 23:30N 69°45' E 019°04'510.4
2018-Jul-12 22:59N 69°40' E 019°00'1 1.6
2018-Jul-12 22:29N 69°40' E 018°58'0 0.0
2018-Jul-12 22:00N 69°40' E 018°58'0 0.0
2018-Jul-12 21:30N 69°40' E 018°58'0 0.0
2018-Jul-12 21:00N 69°40' E 018°58'0 0.9
2018-Jul-12 20:30N 69°39' E 018°59'2 3.4
2018-Jul-12 20:00N 69°38' E 018°57'0 0.0
2018-Jul-12 19:30N 69°38' E 018°57'0 0.0
2018-Jul-12 19:00N 69°38' E 018°57'0 0.0
2018-Jul-12 18:30N 69°38' E 018°57'0 0.0
2018-Jul-12 18:01N 69°38' E 018°57'0 0.0
2018-Jul-12 17:30N 69°38' E 018°57'0 0.0
2018-Jul-12 17:00N 69°38' E 018°57'0 0.0
2018-Jul-12 16:30N 69°38' E 018°57'0 0.0
2018-Jul-12 15:59N 69°38' E 018°57'0 0.0
2018-Jul-12 15:30N 69°38' E 018°57'0 0.0
2018-Jul-12 15:00N 69°38' E 018°57'0 0.0
2018-Jul-12 14:30N 69°38' E 018°57'0 0.0
2018-Jul-12 13:59N 69°38' E 018°57'0 0.0
2018-Jul-12 13:28N 69°38' E 018°57'0 0.0
2018-Jul-12 12:59N 69°38' E 018°57'0 0.0
2018-Jul-12 12:31N 69°38' E 018°57'0 0.0
2018-Jul-12 12:00N 69°38' E 018°57'0 0.0
2018-Jul-12 11:28N 69°38' E 018°57'0 0.0
2018-Jul-12 11:01N 69°38' E 018°57'0 0.0
2018-Jul-12 10:30N 69°38' E 018°57'0 0.0
2018-Jul-12 09:58N 69°38' E 018°57'0 0.0
2018-Jul-12 09:30N 69°38' E 018°57'0 0.0
2018-Jul-12 09:00N 69°38' E 018°57'0 0.0
2018-Jul-12 08:29N 69°38' E 018°57'0 0.0
2018-Jul-12 07:59N 69°38' E 018°57'0 0.0
2018-Jul-12 07:30N 69°38' E 018°57'0 0.0
2018-Jul-12 07:00N 69°38' E 018°57'0 0.0
2018-Jul-12 06:29N 69°38' E 018°57'0 0.0
2018-Jul-12 06:00N 69°38' E 018°57'0 0.0
2018-Jul-12 05:30N 69°38' E 018°57'0 0.0
2018-Jul-12 05:00N 69°38' E 018°57'0 0.0
2018-Jul-12 04:30N 69°38' E 018°57'0 0.0
2018-Jul-12 04:00N 69°38' E 018°57'0 0.0
2018-Jul-12 03:29N 69°38' E 018°57'0 0.0
2018-Jul-12 02:58N 69°38' E 018°57'0 0.0
2018-Jul-12 02:30N 69°38' E 018°57'0 0.0
2018-Jul-12 02:00N 69°38' E 018°57'0 0.0
2018-Jul-12 01:30N 69°38' E 018°57'0 0.0
2018-Jul-12 01:01N 69°38' E 018°57'0 0.0
2018-Jul-12 00:31N 69°38' E 018°57'0 0.0
2018-Jul-12 00:00N 69°38' E 018°57'0 0.0
2018-Jul-11 23:30N 69°38' E 018°57'0 0.0
2018-Jul-11 23:00N 69°38' E 018°57'0 0.0
2018-Jul-11 22:31N 69°38' E 018°57'0 0.0
2018-Jul-11 21:59N 69°38' E 018°57'0 0.0
2018-Jul-11 21:30N 69°38' E 018°57'0 0.3
2018-Jul-11 21:00N 69°38' E 018°57'0 0.3
2018-Jul-11 20:30N 69°38' E 018°57'1 1.4
2018-Jul-11 20:00N 69°38' E 018°57'2 4.8
2018-Jul-11 19:30N 69°41' E 018°59'0 0.0
2018-Jul-11 19:00N 69°41' E 018°59'0 0.0
2018-Jul-11 18:30N 69°41' E 018°59'0 0.0
2018-Jul-11 18:00N 69°41' E 018°59'0 0.0
2018-Jul-11 17:29N 69°41' E 018°59'0 0.0
2018-Jul-11 17:01N 69°41' E 018°59'0 0.0
2018-Jul-11 16:30N 69°41' E 018°59'0 0.0
2018-Jul-11 16:01N 69°41' E 018°59'0 0.0
2018-Jul-11 15:30N 69°41' E 018°59'0 0.0
2018-Jul-11 15:00N 69°41' E 018°59'0 0.0
2018-Jul-11 14:30N 69°41' E 018°59'0 0.0
2018-Jul-11 14:00N 69°41' E 018°59'0 0.0
2018-Jul-11 13:30N 69°41' E 018°59'0 0.0
2018-Jul-11 13:00N 69°41' E 018°59'0 0.0
2018-Jul-11 12:30N 69°41' E 018°59'0 0.0
2018-Jul-11 12:00N 69°41' E 018°59'0 0.0
2018-Jul-11 11:30N 69°41' E 018°59'0 0.0
2018-Jul-11 10:56N 69°41' E 018°59'0 0.0
2018-Jul-11 10:30N 69°41' E 018°59'0 0.0
2018-Jul-11 10:00N 69°41' E 018°59'0 0.0
2018-Jul-11 09:30N 69°41' E 018°59'0 0.0
2018-Jul-11 09:00N 69°41' E 018°59'0 0.0
2018-Jul-11 08:30N 69°41' E 018°59'0 0.0
2018-Jul-11 08:00N 69°41' E 018°59'0 0.0
2018-Jul-11 07:29N 69°41' E 018°59'0 0.0
2018-Jul-11 07:00N 69°41' E 018°59'0 0.0
2018-Jul-11 06:29N 69°41' E 018°59'0 0.0
2018-Jul-11 06:00N 69°41' E 018°59'0 0.0
2018-Jul-11 05:30N 69°41' E 018°59'0 0.0
2018-Jul-11 05:00N 69°41' E 018°59'0 0.0
2018-Jul-11 04:28N 69°41' E 018°59'0 0.0
2018-Jul-11 04:00N 69°41' E 018°59'0 0.0
2018-Jul-11 03:30N 69°41' E 018°59'0 0.0
2018-Jul-11 02:59N 69°41' E 018°59'0 0.0
2018-Jul-11 02:30N 69°41' E 018°59'0 0.0
2018-Jul-11 01:59N 69°41' E 018°59'0 0.0
2018-Jul-11 01:30N 69°41' E 018°59'0 0.0
2018-Jul-11 01:00N 69°41' E 018°59'0 0.0
2018-Jul-11 00:30N 69°41' E 018°59'0 0.0
2018-Jul-11 00:00N 69°41' E 018°59'0 0.0
2018-Jul-10 23:30N 69°41' E 018°59'0 0.0
2018-Jul-10 23:00N 69°41' E 018°59'0 0.0
2018-Jul-10 22:30N 69°41' E 018°59'0 0.0
2018-Jul-10 22:00N 69°41' E 018°59'0 0.0
2018-Jul-10 21:30N 69°41' E 018°59'0 0.0
2018-Jul-10 21:00N 69°41' E 018°59'0 0.0
2018-Jul-10 20:30N 69°41' E 018°59'0 0.0
2018-Jul-10 20:00N 69°41' E 018°59'0 0.0
2018-Jul-10 19:30N 69°41' E 018°59'0 0.0
2018-Jul-10 19:00N 69°41' E 018°59'0 0.0
2018-Jul-10 18:29N 69°41' E 018°59'0 0.0
2018-Jul-10 18:01N 69°41' E 018°59'0 0.0
2018-Jul-10 17:30N 69°41' E 018°59'0 0.0
2018-Jul-10 17:00N 69°41' E 018°59'0 0.0
2018-Jul-10 16:30N 69°41' E 018°59'0 0.0
2018-Jul-10 16:00N 69°41' E 018°59'0 0.0
2018-Jul-10 15:30N 69°41' E 018°59'0 0.0
2018-Jul-10 15:00N 69°41' E 018°59'2 3.8
2018-Jul-10 14:30N 69°42' E 019°02'4 8.0
2018-Jul-10 14:00N 69°46' E 019°06'3 6.8
2018-Jul-10 13:30N 69°47' E 019°15'3 6.2
2018-Jul-10 12:58N 69°48' E 019°24'3 6.9
2018-Jul-10 12:30N 69°49' E 019°33'4 7.1
2018-Jul-10 11:59N 69°51' E 019°43'4 7.9
2018-Jul-10 11:30N 69°54' E 019°51'4 8.7
2018-Jul-10 11:00N 69°57' E 019°58'5 9.6
2018-Jul-10 10:30N 70°02' E 020°04'510.0
2018-Jul-10 10:00N 70°06' E 020°10'510.1
2018-Jul-10 09:29N 70°11' E 020°17'5 9.8
2018-Jul-10 09:00N 70°15' E 020°23'5 9.3
2018-Jul-10 08:29N 70°19' E 020°29'2 4.7
2018-Jul-10 07:59N 70°21' E 020°33'3 6.1
2018-Jul-10 07:29N 70°24' E 020°36'510.6
2018-Jul-10 07:00N 70°29' E 020°43'510.5
2018-Jul-10 06:30N 70°33' E 020°51'510.6
2018-Jul-10 06:00N 70°38' E 020°59'  

Dump ship's entire track history